createdAt,value
2019-02-11T00:00:10.876Z,37.00
2019-02-11T00:02:40.127Z,44.95
2019-02-11T00:05:09.316Z,43.85
2019-02-11T00:07:38.548Z,40.10
2019-02-11T00:10:07.777Z,39.88
2019-02-11T00:12:38.374Z,40.60
2019-02-11T00:15:07.151Z,37.65
2019-02-11T00:17:36.337Z,45.28
2019-02-11T00:20:06.044Z,40.25
2019-02-11T00:22:35.266Z,43.60
2019-02-11T00:25:04.352Z,42.25
2019-02-11T00:27:33.166Z,45.48
2019-02-11T00:30:02.014Z,45.38
2019-02-11T00:32:31.391Z,45.43
2019-02-11T00:35:00.675Z,48.65
2019-02-11T00:37:29.823Z,42.33
2019-02-11T00:39:59.156Z,39.50
2019-02-11T00:42:27.925Z,42.80
2019-02-11T00:44:57.089Z,41.65
2019-02-11T00:47:25.881Z,43.65
2019-02-11T00:49:55.286Z,45.33
2019-02-11T00:52:24.159Z,42.80
2019-02-11T00:54:53.327Z,44.90
2019-02-11T00:57:22.537Z,45.55
2019-02-11T00:59:51.778Z,46.30
2019-02-11T01:02:21.045Z,44.20
2019-02-11T01:04:50.340Z,41.55
2019-02-11T01:07:19.250Z,39.45
2019-02-11T01:09:48.488Z,42.73
2019-02-11T01:12:17.237Z,40.43
2019-02-11T01:14:46.477Z,38.23
2019-02-11T01:17:15.218Z,40.95
2019-02-11T01:19:44.418Z,40.92
2019-02-11T01:22:13.887Z,39.40
2019-02-11T01:24:43.100Z,43.20
2019-02-11T01:27:11.898Z,37.53
2019-02-11T01:29:41.247Z,38.08
2019-02-11T01:32:10.204Z,41.30
2019-02-11T01:34:39.391Z,43.63
2019-02-11T01:37:08.622Z,37.73
2019-02-11T01:39:37.394Z,39.20
2019-02-11T01:42:06.903Z,38.33
2019-02-11T01:44:36.161Z,37.65
2019-02-11T01:47:04.961Z,36.45
2019-02-11T01:49:33.684Z,40.98
2019-02-11T01:52:03.021Z,35.20
2019-02-11T01:54:32.225Z,37.60
2019-02-11T01:57:00.924Z,35.50
2019-02-11T01:59:29.671Z,39.08
2019-02-11T02:01:58.931Z,36.63
2019-02-11T02:04:28.221Z,43.20
2019-02-11T02:06:57.557Z,37.48
2019-02-11T02:09:26.409Z,38.85
2019-02-11T02:11:55.138Z,44.03
2019-02-11T02:14:24.432Z,44.20
2019-02-11T02:16:53.663Z,37.28
2019-02-11T02:19:22.920Z,36.05
2019-02-11T02:21:52.144Z,41.35
2019-02-11T02:24:20.959Z,33.92
2019-02-11T02:26:49.732Z,40.12
2019-02-11T02:29:18.545Z,40.23
2019-02-11T02:31:47.325Z,39.95
2019-02-11T02:34:16.535Z,40.60
2019-02-11T02:36:46.016Z,42.27
2019-02-11T02:39:15.479Z,38.67
2019-02-11T02:41:44.653Z,45.28
2019-02-11T02:44:13.537Z,41.88
2019-02-11T02:46:42.872Z,40.78
2019-02-11T02:49:11.984Z,38.40
2019-02-11T02:51:41.201Z,38.33
2019-02-11T02:54:10.104Z,34.90
2019-02-11T02:56:38.911Z,37.78
2019-02-11T02:59:08.267Z,39.80
2019-02-11T03:01:37.403Z,45.65
2019-02-11T03:04:06.599Z,52.70
2019-02-11T03:06:35.397Z,43.45
2019-02-11T03:09:05.128Z,46.85
2019-02-11T03:11:34.236Z,49.23
2019-02-11T03:14:05.950Z,46.18
2019-02-11T03:16:33.537Z,49.63
2019-02-11T03:19:02.796Z,48.95
2019-02-11T03:21:32.170Z,46.65
2019-02-11T03:24:01.305Z,49.38
2019-02-11T03:26:30.075Z,46.42
2019-02-11T03:28:59.304Z,47.90
2019-02-11T03:31:28.641Z,53.05
2019-02-11T03:33:57.438Z,42.17
2019-02-11T03:36:26.216Z,44.13
2019-02-11T03:38:55.007Z,41.00
2019-02-11T03:41:24.524Z,45.12
2019-02-11T03:43:53.931Z,40.17
2019-02-11T03:46:23.114Z,41.58
2019-02-11T03:48:51.816Z,40.00
2019-02-11T03:51:21.115Z,41.68
2019-02-11T03:53:50.246Z,45.73
2019-02-11T03:56:19.033Z,38.90
2019-02-11T03:58:48.295Z,38.48
2019-02-11T04:01:23.708Z,38.28
2019-02-11T04:03:56.221Z,38.90
2019-02-11T04:06:25.509Z,40.92
2019-02-11T04:08:54.314Z,40.00
2019-02-11T04:11:23.248Z,40.85
2019-02-11T04:13:52.442Z,42.73
2019-02-11T04:16:21.755Z,41.42
2019-02-11T04:18:50.561Z,45.92
2019-02-11T04:21:19.820Z,44.58
2019-02-11T04:23:49.027Z,44.30
2019-02-11T04:26:18.230Z,45.63
2019-02-11T04:28:47.591Z,49.58
2019-02-11T04:31:16.771Z,52.43
2019-02-11T04:33:45.958Z,45.83
2019-02-11T05:31:45.903Z,55.85
2019-02-11T05:34:17.181Z,46.92
2019-02-11T05:36:46.540Z,46.40
2019-02-11T05:39:15.552Z,46.75
2019-02-11T05:41:44.418Z,49.67
2019-02-11T05:44:14.165Z,49.63
2019-02-11T05:46:43.632Z,55.38
2019-02-11T05:49:12.529Z,52.65
2019-02-11T05:51:41.482Z,56.70
2019-02-11T05:54:11.252Z,47.95
2019-02-11T05:56:40.610Z,52.73
2019-02-11T05:59:09.914Z,53.83
2019-02-11T06:01:39.589Z,54.63
2019-02-11T06:04:08.865Z,49.70
2019-02-11T06:06:38.253Z,52.17
2019-02-11T06:09:08.113Z,51.33
2019-02-11T06:11:37.592Z,50.85
2019-02-11T06:14:07.116Z,48.48
2019-02-11T06:16:36.531Z,48.20
2019-02-11T06:19:06.087Z,50.98
2019-02-11T06:21:36.029Z,46.10
2019-02-11T06:24:05.325Z,46.08
2019-02-11T06:26:35.053Z,47.78
2019-02-11T06:29:03.818Z,48.17
2019-02-11T06:31:32.667Z,51.10
2019-02-11T06:34:01.434Z,53.05
2019-02-11T06:36:31.335Z,48.17
2019-02-11T06:38:59.995Z,51.40
2019-02-11T06:41:28.711Z,50.88
2019-02-11T06:43:57.564Z,49.75
2019-02-11T06:46:26.351Z,46.95
2019-02-11T06:48:55.144Z,51.25
2019-02-11T06:51:23.922Z,49.98
2019-02-11T06:53:52.644Z,46.30
2019-02-11T06:56:21.375Z,51.60
2019-02-11T06:58:50.069Z,54.93
2019-02-11T07:01:18.948Z,56.68
2019-02-11T07:03:47.821Z,53.63
2019-02-11T07:06:16.697Z,54.80
2019-02-11T07:08:45.480Z,49.70
2019-02-11T07:11:15.115Z,56.05
2019-02-11T07:13:43.872Z,54.93
2019-02-11T07:16:12.804Z,51.73
2019-02-11T07:18:43.080Z,50.85
2019-02-11T07:21:11.727Z,57.70
2019-02-11T07:23:40.855Z,58.17
2019-02-11T07:26:09.539Z,58.25
2019-02-11T07:28:38.365Z,55.45
2019-02-11T07:31:07.151Z,57.95
2019-02-11T07:33:35.906Z,57.95
2019-02-11T07:36:04.567Z,56.18
2019-02-11T07:38:33.433Z,57.58
2019-02-11T07:41:02.371Z,61.88
2019-02-11T07:43:32.839Z,70.70
2019-02-11T07:46:03.162Z,69.72
2019-02-11T07:48:31.915Z,62.27
2019-02-11T07:51:00.908Z,57.95
2019-02-11T07:53:29.677Z,56.48
2019-02-11T07:55:58.423Z,64.00
2019-02-11T07:58:27.094Z,56.90
2019-02-11T08:00:56.688Z,58.15
2019-02-11T08:03:28.434Z,57.98
2019-02-11T08:05:57.256Z,53.45
2019-02-11T08:08:26.128Z,55.55
2019-02-11T08:10:56.389Z,55.28
2019-02-11T08:13:26.710Z,55.38
2019-02-11T08:15:55.663Z,47.53
2019-02-11T08:18:24.343Z,52.88
2019-02-11T08:20:53.038Z,56.20
2019-02-11T08:23:21.843Z,52.60
2019-02-11T08:25:50.593Z,51.60
2019-02-11T08:28:19.867Z,51.88
2019-02-11T08:30:48.649Z,52.78
2019-02-11T08:33:18.371Z,50.08
2019-02-11T08:35:47.288Z,50.80
2019-02-11T08:38:16.213Z,50.33
2019-02-11T08:40:45.579Z,50.15
2019-02-11T08:43:14.530Z,48.33
2019-02-11T08:45:47.016Z,52.55
2019-02-11T08:48:13.665Z,46.18
2019-02-11T08:50:42.436Z,51.33
2019-02-11T08:53:12.488Z,45.30
2019-02-11T08:55:41.765Z,51.63
2019-02-11T08:58:10.605Z,47.73
2019-02-11T09:00:39.416Z,51.42
2019-02-11T09:03:08.189Z,55.60
2019-02-11T09:05:37.116Z,52.45
2019-02-11T09:08:06.244Z,53.83
2019-02-11T09:10:36.288Z,47.62
2019-02-11T09:13:05.908Z,49.88
2019-02-11T09:15:35.444Z,48.02
2019-02-11T09:18:04.383Z,48.30
2019-02-11T09:20:33.644Z,47.75
2019-02-11T09:23:02.515Z,52.45
2019-02-11T09:25:31.745Z,50.52
2019-02-11T09:28:00.843Z,53.28
2019-02-11T09:30:31.245Z,60.98
2019-02-11T09:33:01.226Z,56.85
2019-02-11T09:35:30.040Z,58.08
2019-02-11T09:37:58.806Z,53.42
2019-02-11T09:40:28.659Z,61.75
2019-02-11T09:42:57.358Z,63.68
2019-02-11T09:45:28.777Z,67.97
2019-02-11T09:47:59.434Z,61.70
2019-02-11T09:50:40.544Z,64.92
2019-02-11T09:53:09.540Z,65.22
2019-02-11T09:55:38.495Z,58.68
2019-02-11T09:58:07.750Z,51.95
2019-02-11T10:00:36.562Z,47.55
2019-02-11T10:03:05.262Z,63.40
2019-02-11T10:05:34.116Z,54.30
2019-02-11T10:08:02.884Z,55.67
2019-02-11T10:10:31.580Z,51.13
2019-02-11T10:13:00.275Z,49.85
2019-02-11T10:15:29.194Z,57.13
2019-02-11T10:17:58.030Z,47.53
2019-02-11T10:20:27.071Z,52.50
2019-02-11T10:22:55.796Z,48.80
2019-02-11T10:25:26.641Z,47.58
2019-02-11T10:27:58.223Z,53.38
2019-02-11T10:30:27.070Z,48.90
2019-02-11T10:32:55.860Z,49.08
2019-02-11T10:35:24.724Z,47.30
2019-02-11T10:37:53.700Z,48.63
2019-02-11T10:40:22.649Z,43.87
2019-02-11T10:42:51.421Z,47.98
2019-02-11T10:45:20.205Z,46.30
2019-02-11T10:47:49.143Z,47.10
2019-02-11T10:50:19.559Z,48.78
2019-02-11T10:52:48.158Z,45.10
2019-02-11T10:55:18.489Z,48.10
2019-02-11T10:57:48.794Z,41.40
2019-02-11T11:00:20.622Z,43.63
2019-02-11T11:06:17.708Z,38.48
2019-02-11T11:08:46.611Z,43.87
2019-02-11T11:11:15.496Z,46.33
2019-02-11T11:13:44.922Z,40.73
2019-02-11T11:16:14.172Z,41.73
2019-02-11T11:18:42.810Z,43.75
2019-02-11T11:21:12.824Z,44.60
2019-02-11T11:23:42.017Z,41.63
2019-02-11T11:26:11.020Z,46.73
2019-02-11T11:28:40.266Z,43.98
2019-02-11T11:31:09.573Z,41.00
2019-02-11T11:33:38.349Z,39.63
2019-02-11T11:36:07.715Z,46.50
2019-02-11T11:38:37.298Z,50.12
2019-02-11T11:41:06.652Z,44.00
2019-02-11T11:43:35.743Z,45.43
2019-02-11T11:46:05.063Z,45.17
2019-02-11T11:48:34.296Z,48.92
2019-02-11T11:51:03.598Z,41.20
2019-02-11T11:53:33.509Z,40.58
2019-02-11T11:56:02.778Z,43.58
2019-02-11T11:58:31.936Z,49.60
2019-02-11T12:01:01.611Z,43.73
2019-02-11T12:03:30.873Z,43.63
2019-02-11T12:06:00.479Z,50.23
2019-02-11T12:08:29.691Z,44.48
2019-02-11T12:10:58.995Z,40.98
2019-02-11T12:13:28.263Z,39.88
2019-02-11T12:15:57.585Z,44.83
2019-02-11T12:18:26.636Z,42.13
2019-02-11T12:20:56.358Z,39.88
2019-02-11T12:23:25.666Z,41.92
2019-02-11T12:25:54.592Z,37.75
2019-02-11T12:28:23.698Z,39.20
2019-02-11T12:30:53.867Z,36.42
2019-02-11T12:33:22.883Z,40.30
2019-02-11T12:35:52.419Z,39.55
2019-02-11T12:38:21.906Z,44.55
2019-02-11T12:40:51.032Z,37.73
2019-02-11T12:43:19.920Z,42.48
2019-02-11T12:45:49.377Z,35.43
2019-02-11T12:48:18.307Z,42.67
2019-02-11T12:50:47.641Z,44.42
2019-02-11T12:53:17.191Z,44.18
2019-02-11T12:55:46.509Z,44.03
2019-02-11T12:58:15.968Z,39.98
2019-02-11T13:00:45.175Z,39.80
2019-02-11T13:03:13.926Z,41.30
2019-02-11T13:05:46.067Z,43.25
2019-02-11T13:08:14.817Z,46.37
2019-02-11T13:10:44.411Z,52.53
2019-02-11T13:13:14.026Z,47.90
2019-02-11T13:16:00.124Z,48.55
2019-02-11T13:18:14.413Z,45.75
2019-02-11T13:20:44.027Z,48.98
2019-02-11T13:23:12.883Z,53.73
2019-02-11T13:25:42.136Z,41.65
2019-02-11T13:28:11.346Z,50.85
2019-02-11T13:30:40.507Z,46.45
2019-02-11T13:33:09.993Z,51.15
2019-02-11T13:35:39.613Z,49.53
2019-02-11T13:38:08.494Z,46.48
2019-02-11T13:40:38.363Z,40.90
2019-02-11T13:43:08.104Z,48.63
2019-02-11T13:45:37.366Z,45.83
2019-02-11T13:48:06.166Z,42.88
2019-02-11T13:50:35.877Z,43.38
2019-02-11T13:53:05.373Z,41.88
2019-02-11T13:55:34.576Z,43.52
2019-02-11T13:58:03.494Z,42.35
2019-02-11T14:00:34.266Z,43.98
2019-02-11T14:03:05.642Z,47.03
2019-02-11T14:05:34.627Z,42.33
2019-02-11T14:08:03.364Z,42.25
2019-02-11T14:10:32.260Z,46.28
2019-02-11T14:13:01.751Z,39.92
2019-02-11T14:15:30.683Z,40.55
2019-02-11T14:18:14.048Z,41.02
2019-02-11T14:20:40.346Z,36.48
2019-02-11T14:23:10.052Z,40.48
2019-02-11T14:25:45.031Z,38.98
2019-02-11T14:28:10.006Z,46.15
2019-02-11T14:30:39.327Z,39.83
2019-02-11T14:33:08.304Z,39.08
2019-02-11T14:35:37.473Z,48.90
2019-02-11T14:38:06.777Z,39.53
2019-02-11T14:40:35.611Z,37.78
2019-02-11T14:43:04.764Z,47.62
2019-02-11T14:45:33.840Z,38.17
2019-02-11T14:48:03.410Z,36.38
2019-02-11T14:50:32.669Z,36.50
2019-02-11T14:53:01.952Z,36.83
2019-02-11T14:55:32.406Z,33.20
2019-02-11T14:58:03.058Z,32.45
2019-02-11T15:00:31.796Z,31.73
2019-02-11T15:03:01.060Z,35.50
2019-02-11T15:05:29.833Z,34.98
2019-02-11T15:07:59.411Z,38.58
2019-02-11T15:10:29.191Z,41.28
2019-02-11T15:12:58.052Z,40.15
2019-02-11T15:15:27.275Z,43.60
2019-02-11T15:17:56.658Z,44.73
2019-02-11T15:20:25.859Z,51.00
2019-02-11T15:22:54.664Z,44.75
2019-02-11T15:25:24.050Z,56.05
2019-02-11T15:27:53.264Z,62.03
2019-02-11T15:30:22.503Z,60.73
2019-02-11T15:32:51.228Z,62.08
2019-02-11T15:35:20.019Z,58.40
2019-02-11T15:37:49.172Z,57.25
2019-02-11T15:40:20.504Z,54.98
2019-02-11T15:42:49.250Z,54.42
2019-02-11T15:45:18.026Z,54.83
2019-02-11T15:47:47.611Z,51.55
2019-02-11T15:50:18.022Z,63.52
2019-02-11T15:52:46.754Z,52.40
2019-02-11T15:55:21.245Z,57.90
2019-02-11T15:57:51.677Z,69.60
2019-02-11T16:00:22.428Z,61.83
2019-02-11T16:02:51.662Z,60.58
2019-02-11T16:05:20.978Z,67.47
2019-02-11T16:07:49.638Z,57.83
2019-02-11T16:10:20.881Z,56.63
2019-02-11T16:12:49.504Z,62.17
2019-02-11T16:15:19.302Z,58.08
2019-02-11T16:17:48.241Z,58.00
2019-02-11T16:20:16.982Z,60.75
2019-02-11T16:22:45.666Z,62.33
2019-02-11T16:25:16.613Z,58.73
2019-02-11T16:27:45.300Z,56.33
2019-02-11T16:30:21.362Z,56.35
2019-02-11T16:32:50.080Z,55.83
2019-02-11T16:35:19.112Z,59.18
2019-02-11T16:37:48.000Z,59.67
2019-02-11T16:40:19.772Z,59.38
2019-02-11T16:42:48.599Z,59.88
2019-02-11T16:45:17.461Z,52.38
2019-02-11T16:47:46.097Z,55.67
2019-02-11T16:50:14.948Z,56.58
2019-02-11T16:52:43.587Z,54.27
2019-02-11T16:55:12.574Z,51.53
2019-02-11T16:57:41.314Z,53.95
2019-02-11T17:00:20.519Z,51.00
2019-02-11T17:02:49.448Z,46.28
2019-02-11T17:05:18.177Z,51.55
2019-02-11T17:07:46.967Z,45.92
2019-02-11T17:10:16.026Z,55.10
2019-02-11T17:12:44.839Z,50.12
2019-02-11T17:15:20.069Z,49.75
2019-02-11T17:17:48.940Z,50.95
2019-02-11T17:20:17.642Z,49.00
2019-02-11T17:22:46.306Z,46.18
2019-02-11T17:25:15.412Z,44.33
2019-02-11T17:27:44.142Z,45.17
2019-02-11T17:30:21.863Z,48.25
2019-02-11T17:32:50.451Z,43.00
2019-02-11T17:35:19.084Z,47.13
2019-02-11T17:37:47.835Z,44.83
2019-02-11T17:40:19.143Z,48.42
2019-02-11T17:42:47.912Z,46.73
2019-02-11T17:45:22.471Z,42.65
2019-02-11T17:47:51.286Z,48.73
2019-02-11T17:50:19.841Z,47.23
2019-02-11T17:52:50.048Z,50.20
2019-02-11T17:55:18.767Z,45.65
2019-02-11T17:57:47.485Z,43.78
2019-02-11T18:00:30.201Z,46.30
2019-02-11T18:02:58.947Z,41.53
2019-02-11T18:05:27.743Z,42.67
2019-02-11T18:07:56.438Z,43.50
2019-02-11T18:10:25.149Z,41.37
2019-02-11T18:12:53.835Z,40.63
2019-02-11T18:15:22.666Z,41.18
2019-02-11T18:17:51.271Z,38.45
2019-02-11T18:20:19.930Z,36.35
2019-02-11T18:22:48.650Z,42.60
2019-02-11T18:25:17.402Z,38.70
2019-02-11T18:27:46.298Z,36.68
2019-02-11T18:30:16.247Z,39.25
2019-02-11T18:32:44.971Z,43.25
2019-02-11T18:35:15.364Z,41.63
2019-02-11T18:37:44.008Z,40.80
2019-02-11T18:40:14.499Z,35.17
2019-02-11T18:42:43.153Z,36.60
2019-02-11T18:45:14.030Z,37.03
2019-02-11T18:47:42.869Z,37.25
2019-02-11T18:50:15.947Z,36.20
2019-02-11T18:52:44.704Z,33.78
2019-02-11T18:55:15.853Z,36.93
2019-02-11T18:57:44.506Z,39.73
2019-02-11T19:00:17.172Z,40.90
2019-02-11T19:02:45.859Z,41.68
2019-02-11T19:05:14.919Z,44.63
2019-02-11T19:07:43.640Z,45.78
2019-02-11T19:10:14.041Z,46.90
2019-02-11T19:12:42.793Z,38.63
2019-02-11T19:15:13.784Z,45.20
2019-02-11T19:17:42.489Z,41.70
2019-02-11T19:20:19.537Z,51.00
2019-02-11T19:22:49.174Z,50.17
2019-02-11T19:25:17.771Z,50.35
2019-02-11T19:27:46.460Z,49.77
2019-02-11T19:30:18.352Z,46.33
2019-02-11T19:32:47.161Z,46.05
2019-02-11T19:35:15.849Z,50.33
2019-02-11T19:37:44.606Z,61.23
2019-02-11T19:40:18.288Z,56.92
2019-02-11T19:42:47.067Z,62.90
2019-02-11T19:45:18.427Z,60.05
2019-02-11T19:47:47.164Z,58.02
2019-02-11T19:50:17.178Z,61.08
2019-02-11T19:52:45.823Z,70.05
2019-02-11T19:55:15.607Z,64.07
2019-02-11T19:57:44.417Z,66.05
2019-02-11T20:00:23.026Z,68.83
2019-02-11T20:02:51.706Z,70.60
2019-02-11T20:05:20.283Z,71.00
2019-02-11T20:07:49.002Z,65.40
2019-02-11T20:10:22.796Z,68.15
2019-02-11T20:12:51.482Z,62.20
2019-02-11T20:15:30.414Z,73.50
2019-02-11T20:17:59.021Z,62.40
2019-02-11T20:20:27.701Z,58.28
2019-02-11T20:22:57.007Z,59.65
2019-02-11T20:25:26.060Z,51.73
2019-02-11T20:28:04.486Z,53.08
2019-02-11T20:30:33.460Z,53.33
2019-02-11T20:33:04.477Z,61.00
2019-02-11T20:35:33.206Z,61.48
2019-02-11T20:38:02.800Z,53.05
2019-02-11T20:40:31.835Z,59.08
2019-02-11T20:43:00.769Z,58.42
2019-02-11T20:45:30.180Z,58.15
2019-02-11T20:47:58.981Z,57.53
2019-02-11T20:50:27.976Z,54.18
2019-02-11T20:52:57.340Z,59.50
2019-02-11T20:55:26.675Z,53.40
2019-02-11T20:57:58.587Z,53.33
2019-02-11T21:00:27.617Z,50.67
2019-02-11T21:02:56.883Z,46.98
2019-02-11T21:05:25.749Z,52.40
2019-02-11T21:07:55.056Z,49.67
2019-02-11T21:10:25.136Z,48.33
2019-02-11T21:12:53.977Z,43.70
2019-02-11T21:15:23.175Z,44.25
2019-02-11T21:17:51.925Z,41.90
2019-02-11T21:20:27.308Z,46.37
2019-02-11T21:22:56.124Z,42.45
2019-02-11T21:25:25.377Z,42.50
2019-02-11T21:27:54.920Z,43.20
2019-02-11T21:30:24.110Z,40.12
2019-02-11T21:32:53.332Z,41.45
2019-02-11T21:35:22.637Z,39.03
2019-02-11T21:37:51.510Z,37.08
2019-02-11T21:40:20.801Z,36.28
2019-02-11T21:42:50.051Z,36.38
2019-02-11T21:45:18.842Z,39.53
2019-02-11T21:47:48.550Z,35.00
2019-02-11T21:50:26.440Z,37.60
2019-02-11T21:52:49.623Z,34.58
2019-02-11T21:55:20.797Z,42.55
2019-02-11T21:57:50.050Z,35.75
2019-02-11T22:00:20.981Z,34.25
2019-02-11T22:02:50.212Z,33.00
2019-02-11T22:05:19.454Z,34.18
2019-02-11T22:07:48.929Z,33.75
2019-02-11T22:10:19.708Z,22.15
2019-02-11T22:12:48.545Z,19.20
2019-02-11T22:15:17.289Z,16.05
2019-02-11T22:17:46.557Z,13.53
2019-02-11T22:20:17.941Z,9.28
2019-02-11T22:22:50.850Z,8.80
2019-02-11T22:25:20.149Z,9.25
2019-02-11T22:27:48.962Z,7.50
2019-02-11T22:30:19.991Z,7.55
2019-02-11T22:32:49.333Z,7.03
2019-02-11T22:35:18.550Z,5.62
2019-02-11T22:37:49.328Z,5.25
2019-02-11T22:40:18.576Z,5.05
2019-02-11T22:42:47.461Z,8.03
2019-02-11T22:45:18.344Z,5.40
2019-02-11T22:47:47.663Z,4.17
2019-02-11T22:50:16.907Z,5.20
2019-02-11T22:52:46.044Z,8.93
2019-02-11T22:55:15.884Z,6.95
2019-02-11T22:57:45.139Z,3.70
2019-02-11T23:00:45.370Z,3.40
2019-02-11T23:03:16.501Z,4.55
2019-02-11T23:05:45.250Z,4.80
2019-02-11T23:08:14.129Z,5.50
2019-02-11T23:10:43.095Z,5.45
2019-02-11T23:13:13.518Z,3.75
2019-02-11T23:15:42.792Z,4.00
2019-02-11T23:18:11.804Z,3.37
2019-02-11T23:20:41.030Z,5.00
2019-02-11T23:23:10.210Z,3.85
2019-02-11T23:25:39.400Z,3.62
2019-02-11T23:28:08.796Z,4.00
2019-02-11T23:30:40.252Z,5.35
2019-02-11T23:33:09.120Z,3.60
2019-02-11T23:35:38.410Z,2.60
2019-02-11T23:38:07.659Z,5.25
2019-02-11T23:40:36.832Z,4.08
2019-02-11T23:43:05.614Z,4.25
2019-02-11T23:45:34.795Z,2.55
2019-02-11T23:48:03.841Z,3.77
2019-02-11T23:50:32.758Z,2.17
2019-02-11T23:53:01.980Z,3.42
2019-02-11T23:55:31.037Z,2.67
2019-02-11T23:57:59.807Z,1.72
